sensor_id;sensor_type;location;lat;lon;timestamp;P1;durP1;ratioP1;P2;durP2;ratioP2
73264;SDS011;61493;51.008;14.088;2022-07-01T00:01:40;11.50;;;7.28;;
73264;SDS011;61493;51.008;14.088;2022-07-01T00:04:06;14.52;;;8.18;;
73264;SDS011;61493;51.008;14.088;2022-07-01T00:06:32;9.32;;;6.18;;
73264;SDS011;61493;51.008;14.088;2022-07-01T00:08:58;12.57;;;7.40;;
73264;SDS011;61493;51.008;14.088;2022-07-01T00:11:23;10.30;;;6.95;;
73264;SDS011;61493;51.008;14.088;2022-07-01T00:13:48;10.07;;;7.53;;
73264;SDS011;61493;51.008;14.088;2022-07-01T00:16:14;11.65;;;7.30;;
73264;SDS011;61493;51.008;14.088;2022-07-01T00:18:39;12.32;;;7.35;;
73264;SDS011;61493;51.008;14.088;2022-07-01T00:21:04;10.93;;;7.07;;
73264;SDS011;61493;51.008;14.088;2022-07-01T00:23:30;10.07;;;6.90;;
73264;SDS011;61493;51.008;14.088;2022-07-01T00:25:56;11.32;;;8.18;;
73264;SDS011;61493;51.008;14.088;2022-07-01T00:28:21;10.75;;;7.10;;
73264;SDS011;61493;51.008;14.088;2022-07-01T00:30:47;10.88;;;7.03;;
73264;SDS011;61493;51.008;14.088;2022-07-01T00:33:12;14.85;;;8.45;;
73264;SDS011;61493;51.008;14.088;2022-07-01T00:35:37;13.80;;;7.60;;
73264;SDS011;61493;51.008;14.088;2022-07-01T00:38:03;11.85;;;9.13;;
73264;SDS011;61493;51.008;14.088;2022-07-01T00:40:28;14.38;;;7.55;;
73264;SDS011;61493;51.008;14.088;2022-07-01T00:42:54;12.30;;;7.43;;
73264;SDS011;61493;51.008;14.088;2022-07-01T00:45:19;11.00;;;7.07;;
73264;SDS011;61493;51.008;14.088;2022-07-01T00:47:45;14.82;;;7.10;;
73264;SDS011;61493;51.008;14.088;2022-07-01T00:50:11;10.85;;;7.70;;
73264;SDS011;61493;51.008;14.088;2022-07-01T00:52:38;10.70;;;7.20;;
73264;SDS011;61493;51.008;14.088;2022-07-01T00:55:05;10.82;;;7.18;;
73264;SDS011;61493;51.008;14.088;2022-07-01T00:57:36;15.85;;;7.65;;
73264;SDS011;61493;51.008;14.088;2022-07-01T01:00:03;12.65;;;7.60;;
73264;SDS011;61493;51.008;14.088;2022-07-01T01:02:30;11.40;;;7.05;;
73264;SDS011;61493;51.008;14.088;2022-07-01T01:04:56;11.98;;;7.15;;
73264;SDS011;61493;51.008;14.088;2022-07-01T01:07:21;13.88;;;7.68;;
73264;SDS011;61493;51.008;14.088;2022-07-01T01:09:47;9.77;;;6.72;;
73264;SDS011;61493;51.008;14.088;2022-07-01T01:12:13;10.73;;;7.03;;
73264;SDS011;61493;51.008;14.088;2022-07-01T01:14:43;11.38;;;7.57;;
73264;SDS011;61493;51.008;14.088;2022-07-01T01:17:09;12.05;;;8.05;;
73264;SDS011;61493;51.008;14.088;2022-07-01T01:19:34;11.85;;;7.20;;
73264;SDS011;61493;51.008;14.088;2022-07-01T01:21:59;10.82;;;7.43;;
73264;SDS011;61493;51.008;14.088;2022-07-01T01:24:25;11.02;;;7.03;;
73264;SDS011;61493;51.008;14.088;2022-07-01T01:26:50;11.82;;;7.10;;
73264;SDS011;61493;51.008;14.088;2022-07-01T01:29:15;12.38;;;7.22;;
73264;SDS011;61493;51.008;14.088;2022-07-01T01:31:41;12.73;;;7.30;;
73264;SDS011;61493;51.008;14.088;2022-07-01T01:34:06;12.57;;;7.30;;
73264;SDS011;61493;51.008;14.088;2022-07-01T01:36:32;13.68;;;7.95;;
73264;SDS011;61493;51.008;14.088;2022-07-01T01:38:57;12.32;;;7.57;;
73264;SDS011;61493;51.008;14.088;2022-07-01T01:41:26;11.55;;;7.78;;
73264;SDS011;61493;51.008;14.088;2022-07-01T01:43:52;9.90;;;7.32;;
73264;SDS011;61493;51.008;14.088;2022-07-01T01:46:17;12.25;;;7.55;;
73264;SDS011;61493;51.008;14.088;2022-07-01T01:48:42;13.73;;;7.68;;
73264;SDS011;61493;51.008;14.088;2022-07-01T01:51:08;12.77;;;7.93;;
73264;SDS011;61493;51.008;14.088;2022-07-01T01:53:33;12.75;;;7.85;;
73264;SDS011;61493;51.008;14.088;2022-07-01T01:55:58;14.38;;;8.93;;
73264;SDS011;61493;51.008;14.088;2022-07-01T01:58:23;12.50;;;7.82;;
73264;SDS011;61493;51.008;14.088;2022-07-01T02:00:48;13.48;;;7.85;;
73264;SDS011;61493;51.008;14.088;2022-07-01T02:03:14;15.55;;;8.27;;
73264;SDS011;61493;51.008;14.088;2022-07-01T02:05:39;11.57;;;7.65;;
73264;SDS011;61493;51.008;14.088;2022-07-01T02:08:05;11.35;;;8.30;;
73264;SDS011;61493;51.008;14.088;2022-07-01T02:10:30;11.52;;;7.97;;
73264;SDS011;61493;51.008;14.088;2022-07-01T02:12:56;10.68;;;6.90;;
73264;SDS011;61493;51.008;14.088;2022-07-01T02:15:22;13.38;;;7.95;;
73264;SDS011;61493;51.008;14.088;2022-07-01T02:17:47;10.45;;;7.82;;
73264;SDS011;61493;51.008;14.088;2022-07-01T02:20:13;11.75;;;8.27;;
73264;SDS011;61493;51.008;14.088;2022-07-01T02:22:39;11.88;;;7.40;;
73264;SDS011;61493;51.008;14.088;2022-07-01T02:25:06;13.90;;;8.30;;
73264;SDS011;61493;51.008;14.088;2022-07-01T02:27:31;13.13;;;8.18;;
73264;SDS011;61493;51.008;14.088;2022-07-01T02:29:56;11.40;;;7.68;;
73264;SDS011;61493;51.008;14.088;2022-07-01T02:32:22;11.90;;;8.20;;
73264;SDS011;61493;51.008;14.088;2022-07-01T02:34:47;13.95;;;8.45;;
73264;SDS011;61493;51.008;14.088;2022-07-01T02:37:12;11.80;;;7.50;;
73264;SDS011;61493;51.008;14.088;2022-07-01T02:39:37;12.70;;;8.15;;
73264;SDS011;61493;51.008;14.088;2022-07-01T02:42:03;13.48;;;8.85;;
73264;SDS011;61493;51.008;14.088;2022-07-01T02:44:47;13.57;;;8.27;;
73264;SDS011;61493;51.008;14.088;2022-07-01T02:47:12;12.13;;;7.10;;
73264;SDS011;61493;51.008;14.088;2022-07-01T02:49:38;12.65;;;8.80;;
73264;SDS011;61493;51.008;14.088;2022-07-01T02:52:04;13.85;;;7.80;;
73264;SDS011;61493;51.008;14.088;2022-07-01T02:54:29;13.50;;;8.20;;
73264;SDS011;61493;51.008;14.088;2022-07-01T02:56:54;11.20;;;7.43;;
73264;SDS011;61493;51.008;14.088;2022-07-01T02:59:20;10.05;;;7.38;;
73264;SDS011;61493;51.008;14.088;2022-07-01T03:01:45;12.40;;;7.47;;
73264;SDS011;61493;51.008;14.088;2022-07-01T03:04:10;10.43;;;7.28;;
73264;SDS011;61493;51.008;14.088;2022-07-01T03:06:35;10.88;;;7.60;;
73264;SDS011;61493;51.008;14.088;2022-07-01T03:09:01;10.85;;;7.22;;
73264;SDS011;61493;51.008;14.088;2022-07-01T03:11:26;14.90;;;8.32;;
73264;SDS011;61493;51.008;14.088;2022-07-01T03:13:51;15.63;;;9.68;;
73264;SDS011;61493;51.008;14.088;2022-07-01T03:16:17;14.25;;;8.63;;
73264;SDS011;61493;51.008;14.088;2022-07-01T03:18:42;11.52;;;8.18;;
73264;SDS011;61493;51.008;14.088;2022-07-01T03:21:07;11.07;;;7.85;;
73264;SDS011;61493;51.008;14.088;2022-07-01T03:23:33;14.45;;;7.95;;
73264;SDS011;61493;51.008;14.088;2022-07-01T03:25:58;10.52;;;7.70;;
73264;SDS011;61493;51.008;14.088;2022-07-01T03:28:23;12.90;;;7.65;;
73264;SDS011;61493;51.008;14.088;2022-07-01T03:30:51;13.35;;;7.75;;
73264;SDS011;61493;51.008;14.088;2022-07-01T03:33:16;12.52;;;7.50;;
73264;SDS011;61493;51.008;14.088;2022-07-01T03:35:42;10.38;;;7.53;;
73264;SDS011;61493;51.008;14.088;2022-07-01T03:38:10;15.40;;;9.68;;
73264;SDS011;61493;51.008;14.088;2022-07-01T03:40:36;12.20;;;8.68;;
73264;SDS011;61493;51.008;14.088;2022-07-01T03:43:01;11.23;;;8.10;;
73264;SDS011;61493;51.008;14.088;2022-07-01T03:45:27;13.52;;;8.85;;
73264;SDS011;61493;51.008;14.088;2022-07-01T03:47:53;12.50;;;7.82;;
73264;SDS011;61493;51.008;14.088;2022-07-01T03:50:20;12.57;;;8.00;;
73264;SDS011;61493;51.008;14.088;2022-07-01T03:52:46;11.38;;;7.53;;
73264;SDS011;61493;51.008;14.088;2022-07-01T03:55:12;10.40;;;6.88;;
73264;SDS011;61493;51.008;14.088;2022-07-01T03:57:39;12.52;;;8.57;;
73264;SDS011;61493;51.008;14.088;2022-07-01T04:00:05;15.98;;;8.38;;
73264;SDS011;61493;51.008;14.088;2022-07-01T04:02:31;13.30;;;7.75;;
73264;SDS011;61493;51.008;14.088;2022-07-01T04:04:57;10.85;;;7.43;;
73264;SDS011;61493;51.008;14.088;2022-07-01T04:07:22;14.30;;;8.35;;
73264;SDS011;61493;51.008;14.088;2022-07-01T04:09:48;10.85;;;7.65;;
73264;SDS011;61493;51.008;14.088;2022-07-01T04:12:13;12.60;;;8.57;;
73264;SDS011;61493;51.008;14.088;2022-07-01T04:14:39;14.07;;;7.97;;
73264;SDS011;61493;51.008;14.088;2022-07-01T04:17:04;11.50;;;6.78;;
73264;SDS011;61493;51.008;14.088;2022-07-01T04:19:30;10.00;;;7.07;;
73264;SDS011;61493;51.008;14.088;2022-07-01T04:21:55;12.27;;;7.22;;
73264;SDS011;61493;51.008;14.088;2022-07-01T04:24:39;9.30;;;6.72;;
73264;SDS011;61493;51.008;14.088;2022-07-01T04:27:05;10.38;;;7.07;;
73264;SDS011;61493;51.008;14.088;2022-07-01T04:29:30;10.65;;;6.95;;
73264;SDS011;61493;51.008;14.088;2022-07-01T04:31:56;8.95;;;6.13;;
73264;SDS011;61493;51.008;14.088;2022-07-01T04:34:22;9.30;;;6.93;;
73264;SDS011;61493;51.008;14.088;2022-07-01T04:36:47;11.40;;;7.05;;
73264;SDS011;61493;51.008;14.088;2022-07-01T04:39:12;10.57;;;6.82;;
73264;SDS011;61493;51.008;14.088;2022-07-01T04:41:38;10.38;;;7.03;;
73264;SDS011;61493;51.008;14.088;2022-07-01T04:44:22;10.68;;;6.85;;
73264;SDS011;61493;51.008;14.088;2022-07-01T04:46:47;12.73;;;7.68;;
73264;SDS011;61493;51.008;14.088;2022-07-01T04:49:12;9.70;;;5.82;;
73264;SDS011;61493;51.008;14.088;2022-07-01T04:51:38;8.48;;;5.82;;
73264;SDS011;61493;51.008;14.088;2022-07-01T04:54:03;8.80;;;5.85;;
73264;SDS011;61493;51.008;14.088;2022-07-01T04:56:31;11.63;;;6.15;;
73264;SDS011;61493;51.008;14.088;2022-07-01T04:58:57;9.52;;;5.97;;
73264;SDS011;61493;51.008;14.088;2022-07-01T05:01:23;8.10;;;5.40;;
73264;SDS011;61493;51.008;14.088;2022-07-01T05:03:48;9.93;;;5.15;;
73264;SDS011;61493;51.008;14.088;2022-07-01T05:06:13;7.95;;;5.35;;
73264;SDS011;61493;51.008;14.088;2022-07-01T05:08:39;9.20;;;5.65;;
73264;SDS011;61493;51.008;14.088;2022-07-01T05:11:04;7.03;;;5.70;;
73264;SDS011;61493;51.008;14.088;2022-07-01T05:13:29;11.23;;;5.90;;
73264;SDS011;61493;51.008;14.088;2022-07-01T05:15:55;9.02;;;6.13;;
73264;SDS011;61493;51.008;14.088;2022-07-01T05:18:20;7.53;;;5.97;;
73264;SDS011;61493;51.008;14.088;2022-07-01T05:21:04;6.35;;;5.13;;
73264;SDS011;61493;51.008;14.088;2022-07-01T05:23:48;8.88;;;5.88;;
73264;SDS011;61493;51.008;14.088;2022-07-01T05:26:13;9.93;;;5.17;;
73264;SDS011;61493;51.008;14.088;2022-07-01T05:28:42;10.82;;;5.93;;
73264;SDS011;61493;51.008;14.088;2022-07-01T05:31:08;9.55;;;6.05;;
73264;SDS011;61493;51.008;14.088;2022-07-01T05:33:33;11.32;;;5.30;;
73264;SDS011;61493;51.008;14.088;2022-07-01T05:35:59;8.05;;;4.85;;
73264;SDS011;61493;51.008;14.088;2022-07-01T05:38:24;9.60;;;4.57;;
73264;SDS011;61493;51.008;14.088;2022-07-01T05:40:49;9.67;;;5.80;;
73264;SDS011;61493;51.008;14.088;2022-07-01T05:43:14;9.38;;;5.57;;
73264;SDS011;61493;51.008;14.088;2022-07-01T05:45:40;6.68;;;5.18;;
73264;SDS011;61493;51.008;14.088;2022-07-01T05:48:06;7.55;;;5.50;;
73264;SDS011;61493;51.008;14.088;2022-07-01T05:50:31;10.52;;;5.57;;
73264;SDS011;61493;51.008;14.088;2022-07-01T05:52:56;9.10;;;5.50;;
73264;SDS011;61493;51.008;14.088;2022-07-01T05:55:21;8.67;;;5.87;;
73264;SDS011;61493;51.008;14.088;2022-07-01T05:57:47;12.63;;;6.30;;
73264;SDS011;61493;51.008;14.088;2022-07-01T06:00:12;7.90;;;6.40;;
73264;SDS011;61493;51.008;14.088;2022-07-01T06:02:38;10.00;;;6.45;;
73264;SDS011;61493;51.008;14.088;2022-07-01T06:05:03;9.00;;;5.90;;
73264;SDS011;61493;51.008;14.088;2022-07-01T06:07:29;10.40;;;5.95;;
73264;SDS011;61493;51.008;14.088;2022-07-01T06:09:55;11.18;;;6.63;;
73264;SDS011;61493;51.008;14.088;2022-07-01T06:12:21;9.38;;;6.68;;
73264;SDS011;61493;51.008;14.088;2022-07-01T06:14:46;10.63;;;5.70;;
73264;SDS011;61493;51.008;14.088;2022-07-01T06:17:11;8.40;;;5.60;;
73264;SDS011;61493;51.008;14.088;2022-07-01T06:19:38;9.07;;;6.05;;
73264;SDS011;61493;51.008;14.088;2022-07-01T06:22:03;10.00;;;6.88;;
73264;SDS011;61493;51.008;14.088;2022-07-01T06:24:29;9.32;;;6.07;;
73264;SDS011;61493;51.008;14.088;2022-07-01T06:26:54;9.87;;;6.17;;
73264;SDS011;61493;51.008;14.088;2022-07-01T06:29:19;9.07;;;5.70;;
73264;SDS011;61493;51.008;14.088;2022-07-01T06:31:45;7.45;;;6.35;;
73264;SDS011;61493;51.008;14.088;2022-07-01T06:34:10;10.90;;;6.23;;
73264;SDS011;61493;51.008;14.088;2022-07-01T06:36:35;8.57;;;6.05;;
73264;SDS011;61493;51.008;14.088;2022-07-01T06:39:01;9.18;;;7.25;;
73264;SDS011;61493;51.008;14.088;2022-07-01T06:41:26;8.93;;;6.40;;
73264;SDS011;61493;51.008;14.088;2022-07-01T06:43:51;9.63;;;7.43;;
73264;SDS011;61493;51.008;14.088;2022-07-01T06:46:16;8.98;;;7.25;;
73264;SDS011;61493;51.008;14.088;2022-07-01T06:48:41;17.00;;;7.43;;
73264;SDS011;61493;51.008;14.088;2022-07-01T06:51:07;9.75;;;6.93;;
73264;SDS011;61493;51.008;14.088;2022-07-01T06:53:32;10.40;;;7.15;;
73264;SDS011;61493;51.008;14.088;2022-07-01T06:55:57;10.70;;;7.28;;
73264;SDS011;61493;51.008;14.088;2022-07-01T06:58:23;13.35;;;8.13;;
73264;SDS011;61493;51.008;14.088;2022-07-01T07:00:48;10.80;;;8.25;;
73264;SDS011;61493;51.008;14.088;2022-07-01T07:03:13;13.10;;;8.95;;
73264;SDS011;61493;51.008;14.088;2022-07-01T07:05:39;13.18;;;8.70;;
73264;SDS011;61493;51.008;14.088;2022-07-01T07:08:04;13.13;;;8.82;;
73264;SDS011;61493;51.008;14.088;2022-07-01T07:10:29;12.18;;;9.55;;
73264;SDS011;61493;51.008;14.088;2022-07-01T07:12:55;10.30;;;8.60;;
73264;SDS011;61493;51.008;14.088;2022-07-01T07:15:21;11.77;;;9.07;;
73264;SDS011;61493;51.008;14.088;2022-07-01T07:17:46;11.27;;;8.45;;
73264;SDS011;61493;51.008;14.088;2022-07-01T07:20:11;11.15;;;7.68;;
73264;SDS011;61493;51.008;14.088;2022-07-01T07:22:37;13.13;;;8.57;;
73264;SDS011;61493;51.008;14.088;2022-07-01T07:25:02;8.90;;;8.00;;
73264;SDS011;61493;51.008;14.088;2022-07-01T07:27:27;10.93;;;7.65;;
73264;SDS011;61493;51.008;14.088;2022-07-01T07:29:53;8.63;;;7.60;;
73264;SDS011;61493;51.008;14.088;2022-07-01T07:32:19;12.38;;;7.57;;
73264;SDS011;61493;51.008;14.088;2022-07-01T07:34:44;9.83;;;7.80;;
73264;SDS011;61493;51.008;14.088;2022-07-01T07:37:09;12.48;;;7.70;;
73264;SDS011;61493;51.008;14.088;2022-07-01T07:39:34;10.27;;;8.10;;
73264;SDS011;61493;51.008;14.088;2022-07-01T07:42:00;9.57;;;7.63;;
73264;SDS011;61493;51.008;14.088;2022-07-01T07:44:25;10.52;;;8.20;;
73264;SDS011;61493;51.008;14.088;2022-07-01T07:46:51;10.98;;;8.73;;
73264;SDS011;61493;51.008;14.088;2022-07-01T07:49:16;10.63;;;8.68;;
73264;SDS011;61493;51.008;14.088;2022-07-01T07:51:42;11.13;;;8.65;;
73264;SDS011;61493;51.008;14.088;2022-07-01T07:54:07;14.02;;;8.95;;
73264;SDS011;61493;51.008;14.088;2022-07-01T07:56:33;14.77;;;9.43;;
73264;SDS011;61493;51.008;14.088;2022-07-01T07:59:01;15.75;;;11.05;;
73264;SDS011;61493;51.008;14.088;2022-07-01T08:01:26;14.90;;;11.77;;
73264;SDS011;61493;51.008;14.088;2022-07-01T08:03:52;16.80;;;11.33;;
73264;SDS011;61493;51.008;14.088;2022-07-01T08:06:17;17.52;;;11.85;;
73264;SDS011;61493;51.008;14.088;2022-07-01T08:08:43;16.42;;;11.75;;
73264;SDS011;61493;51.008;14.088;2022-07-01T08:11:08;18.63;;;12.02;;
73264;SDS011;61493;51.008;14.088;2022-07-01T08:13:33;15.90;;;11.43;;
73264;SDS011;61493;51.008;14.088;2022-07-01T08:15:59;17.80;;;12.05;;
73264;SDS011;61493;51.008;14.088;2022-07-01T08:18:24;17.83;;;12.23;;
73264;SDS011;61493;51.008;14.088;2022-07-01T08:20:50;18.77;;;13.02;;
73264;SDS011;61493;51.008;14.088;2022-07-01T08:23:21;18.63;;;12.45;;
73264;SDS011;61493;51.008;14.088;2022-07-01T08:25:47;17.92;;;12.68;;
73264;SDS011;61493;51.008;14.088;2022-07-01T08:28:14;26.58;;;14.18;;
73264;SDS011;61493;51.008;14.088;2022-07-01T08:30:39;15.95;;;11.93;;
73264;SDS011;61493;51.008;14.088;2022-07-01T08:33:05;21.35;;;13.82;;
73264;SDS011;61493;51.008;14.088;2022-07-01T08:35:30;21.55;;;12.75;;
73264;SDS011;61493;51.008;14.088;2022-07-01T08:37:56;17.80;;;11.63;;
73264;SDS011;61493;51.008;14.088;2022-07-01T08:40:25;19.35;;;13.30;;
73264;SDS011;61493;51.008;14.088;2022-07-01T08:42:54;18.00;;;12.75;;
73264;SDS011;61493;51.008;14.088;2022-07-01T08:45:21;20.75;;;12.52;;
73264;SDS011;61493;51.008;14.088;2022-07-01T08:47:53;16.95;;;12.27;;
73264;SDS011;61493;51.008;14.088;2022-07-01T08:50:25;21.20;;;13.50;;
73264;SDS011;61493;51.008;14.088;2022-07-01T08:52:51;25.73;;;12.82;;
73264;SDS011;61493;51.008;14.088;2022-07-01T08:55:18;18.33;;;12.10;;
73264;SDS011;61493;51.008;14.088;2022-07-01T08:57:47;21.25;;;14.10;;
73264;SDS011;61493;51.008;14.088;2022-07-01T09:00:13;20.85;;;11.82;;
73264;SDS011;61493;51.008;14.088;2022-07-01T09:02:52;20.30;;;12.93;;
73264;SDS011;61493;51.008;14.088;2022-07-01T09:05:20;16.20;;;10.52;;
73264;SDS011;61493;51.008;14.088;2022-07-01T09:07:46;21.45;;;12.85;;
73264;SDS011;61493;51.008;14.088;2022-07-01T09:10:13;18.08;;;10.73;;
73264;SDS011;61493;51.008;14.088;2022-07-01T09:12:44;17.08;;;11.02;;
73264;SDS011;61493;51.008;14.088;2022-07-01T09:15:24;17.80;;;10.80;;
73264;SDS011;61493;51.008;14.088;2022-07-01T09:17:54;15.68;;;10.10;;
73264;SDS011;61493;51.008;14.088;2022-07-01T09:20:24;14.88;;;9.57;;
73264;SDS011;61493;51.008;14.088;2022-07-01T09:22:58;13.82;;;9.85;;
73264;SDS011;61493;51.008;14.088;2022-07-01T09:25:28;17.85;;;10.30;;
73264;SDS011;61493;51.008;14.088;2022-07-01T09:28:04;16.15;;;11.23;;
73264;SDS011;61493;51.008;14.088;2022-07-01T09:30:54;16.35;;;12.23;;
73264;SDS011;61493;51.008;14.088;2022-07-01T09:33:22;16.65;;;10.80;;
73264;SDS011;61493;51.008;14.088;2022-07-01T09:35:53;20.52;;;12.75;;
73264;SDS011;61493;51.008;14.088;2022-07-01T09:38:20;17.48;;;11.38;;
73264;SDS011;61493;51.008;14.088;2022-07-01T09:45:59;15.30;;;9.88;;
73264;SDS011;61493;51.008;14.088;2022-07-01T09:50:56;15.30;;;10.77;;
73264;SDS011;61493;51.008;14.088;2022-07-01T09:53:22;18.17;;;10.35;;
73264;SDS011;61493;51.008;14.088;2022-07-01T09:55:47;18.95;;;12.48;;
73264;SDS011;61493;51.008;14.088;2022-07-01T09:58:12;17.17;;;11.32;;
73264;SDS011;61493;51.008;14.088;2022-07-01T10:00:38;17.10;;;10.45;;
73264;SDS011;61493;51.008;14.088;2022-07-01T10:03:04;18.45;;;11.60;;
73264;SDS011;61493;51.008;14.088;2022-07-01T10:05:31;19.48;;;11.02;;
73264;SDS011;61493;51.008;14.088;2022-07-01T10:11:00;20.02;;;11.93;;
73264;SDS011;61493;51.008;14.088;2022-07-01T10:13:26;17.80;;;11.48;;
73264;SDS011;61493;51.008;14.088;2022-07-01T10:15:52;20.98;;;11.77;;
73264;SDS011;61493;51.008;14.088;2022-07-01T10:18:22;20.25;;;11.60;;
73264;SDS011;61493;51.008;14.088;2022-07-01T10:20:49;21.23;;;13.50;;
73264;SDS011;61493;51.008;14.088;2022-07-01T10:23:16;17.17;;;10.50;;
73264;SDS011;61493;51.008;14.088;2022-07-01T10:25:46;19.15;;;12.77;;
73264;SDS011;61493;51.008;14.088;2022-07-01T10:28:23;18.05;;;10.90;;
73264;SDS011;61493;51.008;14.088;2022-07-01T10:33:37;18.88;;;11.65;;
73264;SDS011;61493;51.008;14.088;2022-07-01T10:41:26;16.85;;;10.98;;
73264;SDS011;61493;51.008;14.088;2022-07-01T10:43:55;14.45;;;9.93;;
73264;SDS011;61493;51.008;14.088;2022-07-01T10:46:37;17.25;;;10.43;;
73264;SDS011;61493;51.008;14.088;2022-07-01T10:49:12;16.20;;;10.30;;
73264;SDS011;61493;51.008;14.088;2022-07-01T10:51:50;15.88;;;10.30;;
73264;SDS011;61493;51.008;14.088;2022-07-01T10:59:42;12.98;;;8.82;;
73264;SDS011;61493;51.008;14.088;2022-07-01T11:02:11;14.30;;;10.43;;
73264;SDS011;61493;51.008;14.088;2022-07-01T11:04:39;15.07;;;9.80;;
73264;SDS011;61493;51.008;14.088;2022-07-01T11:07:04;15.30;;;9.20;;
73264;SDS011;61493;51.008;14.088;2022-07-01T11:09:29;14.00;;;10.40;;
73264;SDS011;61493;51.008;14.088;2022-07-01T11:11:55;12.93;;;8.38;;
73264;SDS011;61493;51.008;14.088;2022-07-01T11:14:20;13.30;;;9.82;;
73264;SDS011;61493;51.008;14.088;2022-07-01T11:16:45;11.45;;;7.95;;
73264;SDS011;61493;51.008;14.088;2022-07-01T11:19:11;12.18;;;9.00;;
73264;SDS011;61493;51.008;14.088;2022-07-01T11:21:36;13.45;;;8.95;;
73264;SDS011;61493;51.008;14.088;2022-07-01T11:24:01;13.10;;;8.38;;
73264;SDS011;61493;51.008;14.088;2022-07-01T11:26:26;12.20;;;8.45;;
73264;SDS011;61493;51.008;14.088;2022-07-01T11:28:52;16.67;;;8.88;;
73264;SDS011;61493;51.008;14.088;2022-07-01T11:31:30;13.50;;;9.60;;
73264;SDS011;61493;51.008;14.088;2022-07-01T11:33:56;12.60;;;8.68;;
73264;SDS011;61493;51.008;14.088;2022-07-01T11:36:22;12.07;;;8.20;;
73264;SDS011;61493;51.008;14.088;2022-07-01T11:39:06;14.88;;;9.00;;
73264;SDS011;61493;51.008;14.088;2022-07-01T11:41:53;14.40;;;9.55;;
73264;SDS011;61493;51.008;14.088;2022-07-01T11:44:30;15.80;;;10.15;;
73264;SDS011;61493;51.008;14.088;2022-07-01T11:47:01;14.13;;;10.30;;
73264;SDS011;61493;51.008;14.088;2022-07-01T11:49:28;17.00;;;10.63;;
73264;SDS011;61493;51.008;14.088;2022-07-01T11:52:03;14.00;;;10.30;;
73264;SDS011;61493;51.008;14.088;2022-07-01T11:54:30;12.23;;;9.48;;
73264;SDS011;61493;51.008;14.088;2022-07-01T11:59:38;12.20;;;8.82;;
73264;SDS011;61493;51.008;14.088;2022-07-01T12:02:05;13.85;;;9.75;;
73264;SDS011;61493;51.008;14.088;2022-07-01T12:04:32;12.80;;;9.75;;
73264;SDS011;61493;51.008;14.088;2022-07-01T12:06:58;13.60;;;10.20;;
73264;SDS011;61493;51.008;14.088;2022-07-01T12:09:23;13.63;;;8.88;;
73264;SDS011;61493;51.008;14.088;2022-07-01T12:11:50;10.48;;;7.40;;
73264;SDS011;61493;51.008;14.088;2022-07-01T12:14:20;11.70;;;9.57;;
73264;SDS011;61493;51.008;14.088;2022-07-01T12:16:46;10.85;;;8.52;;
73264;SDS011;61493;51.008;14.088;2022-07-01T12:19:15;10.65;;;8.70;;
73264;SDS011;61493;51.008;14.088;2022-07-01T12:21:53;12.52;;;9.77;;
73264;SDS011;61493;51.008;14.088;2022-07-01T12:24:23;12.52;;;10.13;;
73264;SDS011;61493;51.008;14.088;2022-07-01T12:26:51;13.57;;;9.77;;
73264;SDS011;61493;51.008;14.088;2022-07-01T12:29:20;10.98;;;8.52;;
73264;SDS011;61493;51.008;14.088;2022-07-01T12:31:58;13.27;;;9.57;;
73264;SDS011;61493;51.008;14.088;2022-07-01T12:34:41;13.82;;;10.60;;
73264;SDS011;61493;51.008;14.088;2022-07-01T12:37:13;14.45;;;9.82;;
73264;SDS011;61493;51.008;14.088;2022-07-01T12:42:24;12.63;;;8.88;;
73264;SDS011;61493;51.008;14.088;2022-07-01T12:44:52;14.45;;;8.50;;
73264;SDS011;61493;51.008;14.088;2022-07-01T12:49:46;11.10;;;7.60;;
73264;SDS011;61493;51.008;14.088;2022-07-01T12:52:24;9.48;;;7.32;;
73264;SDS011;61493;51.008;14.088;2022-07-01T12:54:52;12.60;;;6.72;;
73264;SDS011;61493;51.008;14.088;2022-07-01T12:57:27;8.73;;;6.22;;
73264;SDS011;61493;51.008;14.088;2022-07-01T12:59:57;9.07;;;6.15;;
73264;SDS011;61493;51.008;14.088;2022-07-01T13:02:22;6.57;;;4.90;;
73264;SDS011;61493;51.008;14.088;2022-07-01T13:04:48;8.32;;;5.57;;
73264;SDS011;61493;51.008;14.088;2022-07-01T13:07:13;7.60;;;4.82;;
73264;SDS011;61493;51.008;14.088;2022-07-01T13:09:39;5.72;;;4.50;;
73264;SDS011;61493;51.008;14.088;2022-07-01T13:12:04;6.82;;;4.45;;
73264;SDS011;61493;51.008;14.088;2022-07-01T13:14:30;6.20;;;4.00;;
73264;SDS011;61493;51.008;14.088;2022-07-01T13:16:55;5.32;;;3.70;;
73264;SDS011;61493;51.008;14.088;2022-07-01T13:19:21;5.70;;;4.00;;
73264;SDS011;61493;51.008;14.088;2022-07-01T13:21:46;6.95;;;4.18;;
73264;SDS011;61493;51.008;14.088;2022-07-01T13:24:11;4.47;;;3.30;;
73264;SDS011;61493;51.008;14.088;2022-07-01T13:26:38;2.88;;;2.28;;
73264;SDS011;61493;51.008;14.088;2022-07-01T13:29:05;3.15;;;2.00;;
73264;SDS011;61493;51.008;14.088;2022-07-01T13:31:30;3.20;;;1.98;;
73264;SDS011;61493;51.008;14.088;2022-07-01T13:33:55;2.60;;;1.70;;
73264;SDS011;61493;51.008;14.088;2022-07-01T13:36:20;2.80;;;1.60;;
73264;SDS011;61493;51.008;14.088;2022-07-01T13:38:46;4.47;;;1.83;;
73264;SDS011;61493;51.008;14.088;2022-07-01T13:41:13;2.15;;;1.42;;
73264;SDS011;61493;51.008;14.088;2022-07-01T13:43:39;2.53;;;1.40;;
73264;SDS011;61493;51.008;14.088;2022-07-01T13:46:04;2.42;;;1.67;;
73264;SDS011;61493;51.008;14.088;2022-07-01T13:48:29;2.50;;;1.65;;
73264;SDS011;61493;51.008;14.088;2022-07-01T13:50:55;3.83;;;2.33;;
73264;SDS011;61493;51.008;14.088;2022-07-01T13:53:20;2.72;;;1.70;;
73264;SDS011;61493;51.008;14.088;2022-07-01T13:55:45;2.45;;;1.83;;
73264;SDS011;61493;51.008;14.088;2022-07-01T13:58:11;2.75;;;1.80;;
73264;SDS011;61493;51.008;14.088;2022-07-01T14:00:38;2.90;;;1.90;;
73264;SDS011;61493;51.008;14.088;2022-07-01T14:03:03;3.13;;;2.03;;
73264;SDS011;61493;51.008;14.088;2022-07-01T14:05:28;3.78;;;2.60;;
73264;SDS011;61493;51.008;14.088;2022-07-01T14:07:54;3.50;;;2.55;;
73264;SDS011;61493;51.008;14.088;2022-07-01T14:10:19;4.78;;;2.70;;
73264;SDS011;61493;51.008;14.088;2022-07-01T14:12:44;4.78;;;3.15;;
73264;SDS011;61493;51.008;14.088;2022-07-01T14:15:10;4.88;;;3.40;;
73264;SDS011;61493;51.008;14.088;2022-07-01T14:17:35;5.38;;;3.80;;
73264;SDS011;61493;51.008;14.088;2022-07-01T14:20:02;6.15;;;4.18;;
73264;SDS011;61493;51.008;14.088;2022-07-01T14:22:27;7.95;;;5.30;;
73264;SDS011;61493;51.008;14.088;2022-07-01T14:24:53;9.18;;;5.75;;
73264;SDS011;61493;51.008;14.088;2022-07-01T14:27:19;8.32;;;6.50;;
73264;SDS011;61493;51.008;14.088;2022-07-01T14:29:45;9.73;;;7.03;;
73264;SDS011;61493;51.008;14.088;2022-07-01T14:32:12;9.05;;;7.05;;
73264;SDS011;61493;51.008;14.088;2022-07-01T14:34:37;9.13;;;6.82;;
73264;SDS011;61493;51.008;14.088;2022-07-01T14:37:08;9.27;;;6.38;;
73264;SDS011;61493;51.008;14.088;2022-07-01T14:39:34;10.68;;;6.50;;
73264;SDS011;61493;51.008;14.088;2022-07-01T14:42:00;8.43;;;5.57;;
73264;SDS011;61493;51.008;14.088;2022-07-01T14:44:26;8.10;;;5.63;;
73264;SDS011;61493;51.008;14.088;2022-07-01T14:46:51;12.45;;;7.28;;
73264;SDS011;61493;51.008;14.088;2022-07-01T14:49:17;9.85;;;5.88;;
73264;SDS011;61493;51.008;14.088;2022-07-01T14:51:42;9.82;;;6.03;;
73264;SDS011;61493;51.008;14.088;2022-07-01T14:54:08;9.65;;;6.53;;